createdAt,value
2022-08-29T00:01:45.364Z,19.40
2022-08-29T00:06:49.275Z,19.50
2022-08-29T00:11:54.168Z,19.50
2022-08-29T00:16:57.610Z,19.60
2022-08-29T00:22:00.998Z,19.60
2022-08-29T00:27:06.224Z,19.70
2022-08-29T00:32:10.069Z,19.90
2022-08-29T00:37:13.461Z,19.80
2022-08-29T00:42:18.474Z,19.70
2022-08-29T00:47:27.848Z,19.50
2022-08-29T00:52:35.583Z,19.50
2022-08-29T00:57:43.988Z,19.40
2022-08-29T01:02:48.398Z,19.50
2022-08-29T01:07:52.086Z,19.40
2022-08-29T01:12:56.877Z,19.40
2022-08-29T01:18:01.236Z,19.20
2022-08-29T01:23:10.600Z,19.00
2022-08-29T01:28:20.132Z,19.00
2022-08-29T01:33:23.529Z,19.00
2022-08-29T01:38:28.748Z,19.00
2022-08-29T01:43:41.297Z,18.80
2022-08-29T01:48:46.898Z,18.70
2022-08-29T01:53:50.310Z,18.50
2022-08-29T01:58:56.469Z,18.70
2022-08-29T02:03:59.949Z,18.40
2022-08-29T02:09:04.308Z,18.30
2022-08-29T02:14:19.118Z,18.40
2022-08-29T02:19:23.403Z,18.60
2022-08-29T02:24:27.288Z,18.60
2022-08-29T02:29:37.942Z,18.60
2022-08-29T02:34:44.678Z,18.50
2022-08-29T02:39:51.235Z,18.30
2022-08-29T02:44:55.986Z,18.30
2022-08-29T02:49:59.323Z,18.30
2022-08-29T02:55:02.814Z,18.20
2022-08-29T03:00:09.946Z,18.30
2022-08-29T03:05:13.430Z,18.30
2022-08-29T03:10:17.009Z,18.40
2022-08-29T03:15:22.479Z,18.40
2022-08-29T03:20:26.842Z,18.40
2022-08-29T03:25:30.373Z,18.20
2022-08-29T03:30:36.949Z,18.20
2022-08-29T03:35:40.299Z,18.10
2022-08-29T03:40:43.834Z,18.10
2022-08-29T03:45:48.761Z,18.00
2022-08-29T03:50:56.215Z,18.10
2022-08-29T03:55:59.885Z,18.20
2022-08-29T04:01:05.090Z,18.00
2022-08-29T04:06:08.781Z,17.90
2022-08-29T04:11:13.086Z,17.90
2022-08-29T04:16:20.100Z,17.90
2022-08-29T04:21:23.875Z,18.00
2022-08-29T04:26:36.371Z,17.90
2022-08-29T04:31:43.686Z,17.80
2022-08-29T04:36:47.310Z,17.90
2022-08-29T04:41:50.609Z,18.00
2022-08-29T04:46:55.407Z,18.30
2022-08-29T04:51:58.854Z,18.30
2022-08-29T04:57:03.417Z,18.30
2022-08-29T05:02:09.896Z,18.20
2022-08-29T05:07:13.610Z,18.20
2022-08-29T05:12:17.003Z,17.90
2022-08-29T05:17:21.770Z,17.80
2022-08-29T05:22:25.178Z,17.70
2022-08-29T05:27:28.489Z,17.00
2022-08-29T05:32:33.182Z,17.60
2022-08-29T05:37:36.649Z,17.30
2022-08-29T05:42:40.479Z,17.20
2022-08-29T05:47:45.286Z,17.10
2022-08-29T05:52:48.621Z,17.20
2022-08-29T05:57:54.552Z,17.30
2022-08-29T06:02:59.401Z,17.60
2022-08-29T06:08:03.132Z,17.50
2022-08-29T06:13:06.415Z,17.50
2022-08-29T06:18:11.172Z,17.70
2022-08-29T06:23:14.616Z,18.20
2022-08-29T06:28:23.791Z,18.10
2022-08-29T06:33:28.919Z,18.20
2022-08-29T06:38:32.328Z,18.30
2022-08-29T06:43:35.911Z,18.70
2022-08-29T06:48:40.598Z,18.70
2022-08-29T06:53:43.922Z,18.90
2022-08-29T06:58:47.454Z,19.50
2022-08-29T07:03:54.356Z,19.60
2022-08-29T07:08:58.708Z,19.50
2022-08-29T07:14:04.789Z,19.90
2022-08-29T07:19:11.323Z,19.90
2022-08-29T07:24:14.611Z,20.10
2022-08-29T07:29:21.498Z,20.20
2022-08-29T07:34:26.219Z,21.50
2022-08-29T07:39:29.531Z,20.30
2022-08-29T07:44:34.364Z,20.20
2022-08-29T07:49:41.910Z,19.90
2022-08-29T07:54:45.428Z,20.50
2022-08-29T07:59:49.062Z,20.50
2022-08-29T08:04:54.602Z,20.90
2022-08-29T08:09:58.313Z,20.50
2022-08-29T08:15:03.617Z,20.90
2022-08-29T08:20:09.486Z,21.10
2022-08-29T08:25:14.158Z,21.00
2022-08-29T08:30:17.949Z,21.30
2022-08-29T08:35:23.855Z,22.10
2022-08-29T08:40:28.841Z,22.50
2022-08-29T08:45:37.639Z,22.60
2022-08-29T08:50:49.123Z,22.90
2022-08-29T08:56:00.020Z,23.30
2022-08-29T09:01:06.892Z,24.40
2022-08-29T09:06:22.534Z,22.50
2022-08-29T09:11:36.538Z,22.20
2022-08-29T09:16:44.384Z,22.10
2022-08-29T09:21:53.998Z,22.20
2022-08-29T09:26:57.584Z,22.50
2022-08-29T09:32:10.756Z,22.80
2022-08-29T09:37:27.360Z,23.20
2022-08-29T09:42:36.035Z,24.00
2022-08-29T09:47:39.591Z,26.40
2022-08-29T09:52:54.640Z,28.00
2022-08-29T09:58:02.934Z,29.10
2022-08-29T10:03:08.156Z,27.30
2022-08-29T10:08:30.422Z,29.00
2022-08-29T10:13:41.674Z,29.50
2022-08-29T10:18:49.500Z,30.60
2022-08-29T10:24:19.481Z,30.70
2022-08-29T10:29:36.426Z,28.70
2022-08-29T10:34:57.234Z,29.60
2022-08-29T10:40:10.122Z,29.50
2022-08-29T10:45:18.450Z,27.10
2022-08-29T10:50:44.110Z,23.20
2022-08-29T10:55:55.746Z,27.20
2022-08-29T11:01:08.891Z,29.90
2022-08-29T11:06:17.171Z,30.70
2022-08-29T11:11:30.060Z,28.90
2022-08-29T11:16:38.380Z,27.40
2022-08-29T11:21:45.851Z,27.60
2022-08-29T11:26:59.566Z,29.60
2022-08-29T11:32:09.329Z,31.10
2022-08-29T11:37:45.668Z,30.30
2022-08-29T11:42:53.451Z,31.50
2022-08-29T11:48:03.023Z,32.50
2022-08-29T11:53:11.315Z,33.70
2022-08-29T11:58:46.136Z,33.80
2022-08-29T12:03:50.566Z,32.20
2022-08-29T12:09:06.448Z,30.30
2022-08-29T12:14:34.275Z,29.10
2022-08-29T12:19:49.706Z,27.90
2022-08-29T12:24:57.651Z,27.50
2022-08-29T12:30:02.718Z,27.20
2022-08-29T12:35:28.519Z,29.20
2022-08-29T12:40:43.442Z,29.70
2022-08-29T12:45:50.542Z,30.60
2022-08-29T12:50:54.127Z,28.70
2022-08-29T12:55:59.381Z,29.90
2022-08-29T13:01:05.600Z,28.70
2022-08-29T13:06:14.406Z,28.10
2022-08-29T13:11:21.539Z,29.00
2022-08-29T13:16:30.108Z,28.70
2022-08-29T13:21:35.195Z,30.50
2022-08-29T13:27:01.090Z,33.80
2022-08-29T13:32:20.385Z,35.20
2022-08-29T13:37:31.174Z,37.30
2022-08-29T13:42:34.642Z,35.90
2022-08-29T13:47:49.157Z,36.10
2022-08-29T13:52:54.065Z,36.40
2022-08-29T13:57:58.404Z,36.10
2022-08-29T14:03:05.541Z,35.90
2022-08-29T14:08:11.073Z,35.20
2022-08-29T14:13:14.397Z,34.80
2022-08-29T14:18:19.106Z,33.30
2022-08-29T14:23:23.314Z,32.60
2022-08-29T14:28:26.767Z,31.40
2022-08-29T14:33:32.277Z,31.60
2022-08-29T14:38:37.674Z,30.80
2022-08-29T14:43:41.027Z,31.10
2022-08-29T14:48:45.705Z,32.80
2022-08-29T14:53:54.326Z,34.10
2022-08-29T14:58:58.339Z,35.40
2022-08-29T15:04:03.416Z,36.30
2022-08-29T15:09:07.156Z,36.40
2022-08-29T15:14:10.607Z,36.70
2022-08-29T15:24:40.853Z,35.70
2022-08-29T15:29:44.529Z,35.80
2022-08-29T15:34:49.973Z,37.00
2022-08-29T15:39:55.049Z,36.10
2022-08-29T15:45:02.431Z,36.80
2022-08-29T15:50:11.600Z,33.60
2022-08-29T15:55:14.905Z,32.10
2022-08-29T16:00:21.520Z,32.30
2022-08-29T16:05:36.237Z,32.00
2022-08-29T16:10:40.426Z,32.10
2022-08-29T16:15:43.806Z,32.00
2022-08-29T16:20:48.603Z,29.70
2022-08-29T16:25:53.505Z,29.40
2022-08-29T16:30:56.860Z,30.60
2022-08-29T16:36:02.486Z,30.20
2022-08-29T16:41:08.314Z,30.10
2022-08-29T16:46:14.908Z,29.80
2022-08-29T16:51:21.551Z,30.50
2022-08-29T16:56:24.835Z,31.10
2022-08-29T17:01:29.332Z,30.00
2022-08-29T17:06:35.237Z,28.30
2022-08-29T17:11:37.765Z,27.30
2022-08-29T17:16:42.707Z,26.70
2022-08-29T17:21:48.097Z,26.30
2022-08-29T17:26:51.508Z,25.80
2022-08-29T17:31:55.020Z,25.50
2022-08-29T17:36:59.911Z,25.60
2022-08-29T17:42:05.084Z,25.60
2022-08-29T17:47:08.867Z,25.20
2022-08-29T17:52:13.742Z,24.90
2022-08-29T17:57:17.524Z,24.70
2022-08-29T18:02:21.080Z,24.40
2022-08-29T18:07:25.777Z,24.30
2022-08-29T18:12:31.947Z,24.10
2022-08-29T18:17:35.417Z,23.80
2022-08-29T18:22:40.830Z,23.30
2022-08-29T18:27:44.192Z,22.80
2022-08-29T18:32:47.593Z,22.80
2022-08-29T18:37:52.916Z,22.60
2022-08-29T18:42:56.733Z,22.50
2022-08-29T18:48:00.324Z,22.20
2022-08-29T18:53:08.297Z,22.20
2022-08-29T18:58:14.119Z,22.20
2022-08-29T19:03:18.793Z,22.20
2022-08-29T19:08:25.756Z,22.10
2022-08-29T19:13:30.604Z,22.20
2022-08-29T19:18:35.011Z,22.30
2022-08-29T19:23:42.128Z,22.30
2022-08-29T19:28:47.023Z,22.20
2022-08-29T19:33:50.439Z,22.10
2022-08-29T19:38:55.349Z,21.90
2022-08-29T19:44:00.602Z,21.90
2022-08-29T19:54:12.680Z,21.70
2022-08-29T19:59:16.467Z,21.30
2022-08-29T20:04:19.758Z,21.10
2022-08-29T20:09:25.698Z,21.00
2022-08-29T20:14:30.486Z,21.10
2022-08-29T20:19:36.209Z,20.90
2022-08-29T20:24:44.460Z,20.80
2022-08-29T20:29:47.845Z,20.70
2022-08-29T20:34:52.606Z,20.50
2022-08-29T20:39:59.856Z,20.40
2022-08-29T20:45:03.231Z,20.10
2022-08-29T20:50:09.404Z,20.20
2022-08-29T20:55:14.799Z,19.90
2022-08-29T21:00:19.745Z,19.70
2022-08-29T21:05:40.730Z,19.40
2022-08-29T21:10:46.346Z,19.20
2022-08-29T21:15:49.807Z,19.30
2022-08-29T21:20:55.289Z,19.60
2022-08-29T21:26:01.873Z,19.60
2022-08-29T21:31:06.104Z,19.30
2022-08-29T21:36:11.937Z,18.90
2022-08-29T21:41:16.887Z,18.80
2022-08-29T21:46:22.156Z,18.70
2022-08-29T21:51:25.960Z,18.90
2022-08-29T21:56:32.599Z,18.80
2022-08-29T22:01:41.047Z,18.70
2022-08-29T22:06:45.517Z,18.70
2022-08-29T22:11:56.852Z,18.50
2022-08-29T22:17:00.251Z,18.50
2022-08-29T22:22:04.237Z,18.50
2022-08-29T22:27:09.853Z,18.50
2022-08-29T22:32:14.056Z,18.60
2022-08-29T22:37:17.389Z,18.60
2022-08-29T22:42:22.145Z,18.30
2022-08-29T22:47:26.751Z,18.40
2022-08-29T22:52:30.256Z,18.50
2022-08-29T22:57:35.070Z,18.60
2022-08-29T23:02:38.688Z,18.50
2022-08-29T23:07:42.203Z,18.50
2022-08-29T23:12:47.093Z,18.00
2022-08-29T23:17:50.441Z,17.80
2022-08-29T23:22:53.789Z,17.40
2022-08-29T23:27:58.544Z,17.40
2022-08-29T23:33:01.852Z,17.50
2022-08-29T23:38:07.616Z,17.60
2022-08-29T23:43:13.129Z,17.60
2022-08-29T23:48:16.628Z,17.70
2022-08-29T23:53:20.517Z,17.70
2022-08-29T23:58:25.211Z,17.70
